Details From LIMJ - Genova Sestri
To LFKC - St Catherine
Flight Number -
Tags Novice Generated
Created
Modified
Stats Distance 118 nm / 219 km
Max Altitude 400 ft / 122 m
Waypoints 9
Social Downloads 13
Likes 0
Share VATSIM

Download

Looking for another format? Having issues loading an existing format? Contact us
Advertisement - Login to hide

Notes

Departing runway 10 LIMJ. Arriving runway 17 LFKC.

Route

LIMJ +44.39_+008.96 +44.36_+009.02 +44.31_+009.07 +44.25_+009.09 +44.19_+009.08 +43.56_+008.96 +42.61_+008.79 LFKC

ID Type Via Altitude Latitude Longitude Leg Dist Tot Dist Heading (true) Name
O LIMJ APT - 0 ft / 0 m 44.40848˚ 8.85958˚ - 0 nm - -
+44.39_+008.96 LATLON - 400 ft / 122 m 44.38926˚ 8.95723˚ 4 nm 4 nm 105° / 105° -
+44.36_+009.02 LATLON - 400 ft / 122 m 44.35572˚ 9.02325˚ 3 nm 7 nm 125° / 125° -
+44.31_+009.07 LATLON - 400 ft / 122 m 44.30808˚ 9.06923˚ 3 nm 11 nm 145° / 145° -
+44.25_+009.09 LATLON - 400 ft / 122 m 44.25206˚ 9.08964˚ 3 nm 14 nm 165° / 165° -
+44.19_+009.08 LATLON - 400 ft / 122 m 44.19442˚ 9.08208˚ 3 nm 18 nm 185° / 185° -
+43.56_+008.96 LATLON - 400 ft / 122 m 43.55537˚ 8.96301˚ 38 nm 56 nm 188° / 188° -
+42.61_+008.79 LATLON - 400 ft / 122 m 42.61353˚ 8.79214˚ 57 nm 114 nm 188° / 187° -
O LFKC APT - 0 ft / 0 m 42.54117˚ 8.79283˚ 4 nm 118 nm 180° / 180° -

Altitude Profile

Advertisement - Login to hide

LIMJ

Details ICAO LIMJ (GOA)
Name Genova Sestri
Region Italy
Timezone Unknown (UTC+0.0)
Stats Elevation 13 ft / 4 m (AMSL)
Location 44.411957° 8.841866°
Runways 1
Magnetic Variation 2.388° E

METAR

LIMJ 170950Z VRB06KT 9999 SCT055 08/M06 Q1019

Decode

TAF

TAF LIMJ 170500Z 1706/1806 04012KT CAVOK

Decode

Departure Runways

ID Width Length Bearing (true) Bearing (mag) Surface Threshold Offset Overrun Length
10 148 ft / 45 m 9,574 ft / 2,918 m 105.39° 103.00° Asphalt 0 ft / 0 m 0 ft / 0 m
28 148 ft / 45 m 9,574 ft / 2,918 m 285.41° 283.02° Asphalt 538 ft / 164 m 0 ft / 0 m

LFKC

Details ICAO LFKC (CLY)
Name St Catherine
Region France
Timezone Europe/Paris (UTC+1.0)
Stats Elevation 208 ft / 63 m (AMSL)
Location 42.530762° 8.792925°
Runways 1
Magnetic Variation 2.343° E

METAR

LFKC 171000Z AUTO 19003KT 150V220 CAVOK 13/02 Q1018 TEMPO 01010KT 4000 SHRA SCT025TCU

Decode

TAF

TAF LFKC 170800Z 1709/1809 19006KT 9999 FEW030 SCT060 BKN150 TEMPO 1711/1715 01010KT PROB30 TEMPO 1709/1715 4000 SHRA SCT025TCU TX12/1713Z TN03/1804Z

Decode

Destination Runways

ID Width Length Bearing (true) Bearing (mag) Surface Threshold Offset Overrun Length
18 131 ft / 40 m 7,596 ft / 2,315 m 179.60° 177.26° Concrete 0 ft / 0 m 0 ft / 0 m
36 131 ft / 40 m 7,596 ft / 2,315 m 359.60° 357.26° Concrete 656 ft / 200 m 0 ft / 0 m

Approach Navaids

Runway Type Ident Frequency Range Bearing (true) Bearing (mag) Slope Elevation
18 Localiser CLI 109.50 MHz 18 nm / 33 km 179.62° 177.27° - 230 ft / 70 m (AMSL)
18 DME CLI 109.50 MHz 18 nm / 33 km - - - 230 ft / 70 m (AMSL)

Popular Alternatives